createdAt,value
2022-11-24T00:00:18.598Z,86.44
2022-11-24T00:01:23.239Z,86.46
2022-11-24T00:02:24.905Z,86.23
2022-11-24T00:03:27.524Z,86.35
2022-11-24T00:04:31.611Z,86.23
2022-11-24T00:05:38.271Z,86.42
2022-11-24T00:06:40.775Z,86.45
2022-11-24T00:07:42.470Z,86.66
2022-11-24T00:08:46.974Z,86.42
2022-11-24T00:09:48.467Z,86.26
2022-11-24T00:10:50.982Z,86.50
2022-11-24T00:11:52.484Z,86.38
2022-11-24T00:12:54.952Z,86.38
2022-11-24T00:13:58.075Z,86.41
2022-11-24T00:15:00.519Z,86.30
2022-11-24T00:16:07.291Z,86.02
2022-11-24T00:17:09.827Z,86.39
2022-11-24T00:18:11.357Z,86.19
2022-11-24T00:19:19.463Z,86.41
2022-11-24T00:20:22.868Z,86.29
2022-11-24T00:21:27.036Z,86.34
2022-11-24T00:22:28.556Z,86.31
2022-11-24T00:23:31.158Z,86.39
2022-11-24T00:24:32.927Z,86.53
2022-11-24T00:25:35.532Z,86.49
2022-11-24T00:26:37.527Z,86.51
2022-11-24T00:27:40.161Z,86.42
2022-11-24T00:28:42.866Z,86.52
2022-11-24T00:29:45.350Z,86.36
2022-11-24T00:30:46.965Z,86.37
2022-11-24T00:31:49.471Z,86.51
2022-11-24T00:32:52.650Z,86.10
2022-11-24T00:33:56.794Z,86.34
2022-11-24T00:34:58.323Z,86.15
2022-11-24T00:36:02.740Z,86.27
2022-11-24T00:37:04.624Z,86.19
2022-11-24T00:38:07.174Z,86.16
2022-11-24T00:39:11.884Z,86.22
2022-11-24T00:40:14.378Z,86.21
2022-11-24T00:41:15.890Z,86.28
2022-11-24T00:42:18.522Z,86.15
2022-11-24T00:43:20.449Z,86.33
2022-11-24T00:44:22.933Z,86.26
2022-11-24T00:45:24.516Z,86.29
2022-11-24T00:46:27.972Z,86.03
2022-11-24T00:47:32.682Z,86.05
2022-11-24T00:48:35.266Z,86.09
2022-11-24T00:49:36.778Z,86.14
2022-11-24T00:50:39.309Z,86.09
2022-11-24T00:51:42.359Z,85.99
2022-11-24T00:52:44.821Z,85.99
2022-11-24T00:53:46.384Z,85.91
2022-11-24T00:54:48.985Z,85.89
2022-11-24T00:55:50.903Z,85.91
2022-11-24T00:56:53.428Z,85.96
2022-11-24T00:57:54.967Z,85.85
2022-11-24T00:58:57.603Z,85.99
2022-11-24T00:59:59.166Z,86.01
2022-11-24T01:01:03.913Z,85.78
2022-11-24T01:02:05.558Z,85.72
2022-11-24T01:03:08.514Z,85.87
2022-11-24T01:04:10.225Z,85.81
2022-11-24T01:05:12.740Z,85.81
2022-11-24T01:06:16.342Z,85.76
2022-11-24T01:07:20.192Z,85.71
2022-11-24T01:08:21.896Z,85.64
2022-11-24T01:09:24.554Z,85.77
2022-11-24T01:10:26.135Z,85.60
2022-11-24T01:11:29.972Z,85.68
2022-11-24T01:12:32.215Z,85.68
2022-11-24T01:13:34.759Z,85.68
2022-11-24T01:14:37.475Z,85.62
2022-11-24T01:15:39.934Z,85.47
2022-11-24T01:16:42.493Z,85.56
2022-11-24T01:17:45.203Z,85.64
2022-11-24T01:18:47.514Z,85.62
2022-11-24T01:19:50.683Z,85.58
2022-11-24T01:20:52.303Z,85.35
2022-11-24T01:21:54.844Z,85.49
2022-11-24T01:22:57.746Z,85.56
2022-11-24T01:24:00.282Z,85.21
2022-11-24T01:25:01.809Z,85.41
2022-11-24T01:26:06.633Z,85.32
2022-11-24T01:27:09.152Z,85.10
2022-11-24T01:28:10.694Z,85.09
2022-11-24T01:29:13.791Z,85.10
2022-11-24T01:30:15.418Z,84.90
2022-11-24T01:31:17.964Z,85.09
2022-11-24T01:32:19.527Z,84.93
2022-11-24T01:33:21.980Z,84.88
2022-11-24T01:34:23.551Z,84.64
2022-11-24T01:35:26.019Z,84.61
2022-11-24T01:36:27.513Z,84.65
2022-11-24T01:37:30.010Z,84.53
2022-11-24T01:38:33.260Z,84.62
2022-11-24T01:39:35.759Z,84.49
2022-11-24T01:40:37.255Z,84.59
2022-11-24T01:41:39.784Z,84.45
2022-11-24T01:42:46.739Z,84.43
2022-11-24T01:43:50.671Z,84.28
2022-11-24T01:45:40.574Z,84.36
2022-11-24T01:46:47.376Z,84.30
2022-11-24T01:47:49.326Z,84.27
2022-11-24T01:48:57.226Z,84.25
2022-11-24T01:50:01.780Z,84.24
2022-11-24T01:51:09.276Z,84.22
2022-11-24T01:52:16.929Z,84.18
2022-11-24T01:53:18.594Z,84.12
2022-11-24T01:54:26.036Z,83.95
2022-11-24T01:55:31.997Z,84.04
2022-11-24T01:56:38.376Z,83.97
2022-11-24T01:57:45.103Z,84.04
2022-11-24T01:58:49.336Z,84.06
2022-11-24T01:59:55.759Z,83.95
2022-11-24T02:00:58.446Z,83.88
2022-11-24T02:02:00.145Z,83.81
2022-11-24T02:03:03.026Z,83.79
2022-11-24T02:04:08.825Z,83.83
2022-11-24T02:05:17.460Z,83.71
2022-11-24T02:06:23.991Z,83.64
2022-11-24T02:07:27.592Z,83.71
2022-11-24T02:08:34.950Z,83.65
2022-11-24T02:09:44.212Z,83.60
2022-11-24T02:10:46.326Z,83.61
2022-11-24T02:11:48.797Z,83.71
2022-11-24T02:12:52.310Z,83.69
2022-11-24T02:13:55.923Z,83.64
2022-11-24T02:14:58.991Z,83.58
2022-11-24T02:16:02.169Z,83.51
2022-11-24T02:17:03.861Z,83.50
2022-11-24T02:18:06.651Z,83.51
2022-11-24T02:19:23.698Z,83.49
2022-11-24T02:20:26.170Z,83.51
2022-11-24T02:21:29.091Z,83.44
2022-11-24T02:22:39.851Z,83.41
2022-11-24T02:23:48.405Z,83.34
2022-11-24T02:24:57.981Z,83.36
2022-11-24T02:26:08.649Z,83.45
2022-11-24T02:27:11.963Z,83.41
2022-11-24T02:28:18.596Z,83.33
2022-11-24T02:29:20.498Z,83.31
2022-11-24T02:30:23.215Z,82.91
2022-11-24T02:31:25.179Z,83.07
2022-11-24T02:32:29.137Z,83.22
2022-11-24T02:33:30.919Z,83.05
2022-11-24T02:34:33.644Z,83.10
2022-11-24T02:35:35.909Z,83.00
2022-11-24T02:36:38.475Z,83.02
2022-11-24T02:37:40.007Z,82.90
2022-11-24T02:38:42.635Z,82.90
2022-11-24T02:39:44.195Z,82.69
2022-11-24T02:40:50.030Z,82.91
2022-11-24T02:41:54.602Z,82.77
2022-11-24T02:43:03.475Z,82.72
2022-11-24T02:44:05.468Z,82.73
2022-11-24T02:45:10.800Z,82.66
2022-11-24T02:46:12.826Z,82.77
2022-11-24T02:47:15.406Z,82.73
2022-11-24T02:48:17.210Z,82.74
2022-11-24T02:49:19.769Z,82.63
2022-11-24T02:50:21.289Z,82.63
2022-11-24T02:51:23.832Z,82.68
2022-11-24T02:52:25.489Z,82.52
2022-11-24T02:53:27.980Z,82.57
2022-11-24T02:54:29.582Z,82.72
2022-11-24T02:55:32.856Z,82.44
2022-11-24T02:56:34.366Z,82.44
2022-11-24T02:57:36.817Z,82.44
2022-11-24T02:58:39.866Z,82.51
2022-11-24T02:59:42.350Z,82.44
2022-11-24T03:00:43.836Z,82.41
2022-11-24T03:01:46.360Z,82.50
2022-11-24T03:02:48.182Z,82.41
2022-11-24T03:03:50.752Z,82.39
2022-11-24T03:04:52.319Z,82.32
2022-11-24T03:05:54.983Z,82.41
2022-11-24T03:06:56.508Z,82.37
2022-11-24T03:07:58.956Z,82.30
2022-11-24T03:09:00.509Z,82.33
2022-11-24T03:10:02.994Z,82.36
2022-11-24T03:11:05.833Z,82.36
2022-11-24T03:12:07.667Z,82.34
2022-11-24T03:13:10.456Z,82.36
2022-11-24T03:14:13.445Z,82.41
2022-11-24T03:15:15.983Z,82.31
2022-11-24T03:16:17.636Z,82.10
2022-11-24T03:17:20.183Z,82.32
2022-11-24T03:18:21.665Z,82.34
2022-11-24T03:19:24.181Z,82.34
2022-11-24T03:20:26.324Z,82.28
2022-11-24T03:21:29.163Z,82.27
2022-11-24T03:22:31.068Z,82.22
2022-11-24T03:23:33.584Z,82.27
2022-11-24T03:24:35.328Z,82.22
2022-11-24T03:25:38.005Z,82.26
2022-11-24T03:26:39.609Z,82.32
2022-11-24T03:27:42.227Z,82.44
2022-11-24T03:28:44.272Z,82.35
2022-11-24T03:29:48.100Z,82.34
2022-11-24T03:30:49.709Z,82.33
2022-11-24T03:31:52.230Z,82.32
2022-11-24T03:32:54.000Z,82.47
2022-11-24T03:33:56.465Z,82.35
2022-11-24T03:34:57.960Z,82.38
2022-11-24T03:36:00.569Z,82.45
2022-11-24T03:37:02.290Z,82.38
2022-11-24T03:38:04.829Z,82.34
2022-11-24T03:39:07.067Z,82.27
2022-11-24T03:40:10.587Z,82.40
2022-11-24T03:41:12.313Z,82.29
2022-11-24T03:42:14.925Z,82.45
2022-11-24T03:43:16.548Z,82.39
2022-11-24T03:44:19.345Z,82.44
2022-11-24T03:45:44.795Z,82.29
2022-11-24T03:46:46.161Z,82.34
2022-11-24T03:47:50.240Z,82.18
2022-11-24T03:48:52.834Z,82.26
2022-11-24T03:49:54.506Z,82.15
2022-11-24T03:50:58.998Z,82.19
2022-11-24T03:52:03.857Z,82.13
2022-11-24T03:53:10.265Z,82.07
2022-11-24T03:54:12.055Z,82.04
2022-11-24T03:55:16.332Z,82.03
2022-11-24T03:56:17.857Z,82.01
2022-11-24T03:57:20.330Z,82.01
2022-11-24T03:58:21.896Z,82.07
2022-11-24T03:59:24.330Z,81.88
2022-11-24T04:00:27.814Z,81.93
2022-11-24T04:01:30.391Z,82.08
2022-11-24T04:02:32.350Z,81.98
2022-11-24T04:03:35.077Z,81.93
2022-11-24T04:04:37.011Z,81.79
2022-11-24T04:05:39.560Z,81.77
2022-11-24T04:06:41.316Z,81.85
2022-11-24T04:07:43.952Z,81.88
2022-11-24T04:08:45.582Z,81.73
2022-11-24T04:09:48.175Z,81.83
2022-11-24T04:10:50.904Z,81.54
2022-11-24T04:12:10.959Z,81.72
2022-11-24T04:13:15.075Z,81.55
2022-11-24T04:14:18.242Z,81.41
2022-11-24T04:15:21.559Z,81.55
2022-11-24T04:16:24.444Z,81.54
2022-11-24T04:17:26.909Z,81.42
2022-11-24T04:18:28.425Z,81.53
2022-11-24T04:19:31.154Z,81.50
2022-11-24T04:20:33.055Z,81.42
2022-11-24T04:21:35.521Z,81.31
2022-11-24T04:22:37.066Z,81.46
2022-11-24T04:23:39.539Z,81.39
2022-11-24T04:24:41.381Z,81.35
2022-11-24T04:25:43.877Z,81.43
2022-11-24T04:26:45.370Z,81.32
2022-11-24T04:27:51.777Z,81.34
2022-11-24T04:28:53.295Z,81.29
2022-11-24T04:29:55.868Z,81.40
2022-11-24T04:31:02.108Z,81.45
2022-11-24T04:32:06.295Z,81.45
2022-11-24T04:33:07.819Z,81.17
2022-11-24T04:34:10.302Z,81.56
2022-11-24T04:35:12.178Z,81.55
2022-11-24T04:36:14.774Z,81.55
2022-11-24T04:37:16.284Z,81.47
2022-11-24T04:39:22.852Z,81.49
2022-11-24T04:39:41.209Z,81.60
2022-11-24T04:40:42.785Z,81.46
2022-11-24T04:41:45.313Z,81.53
2022-11-24T04:42:54.332Z,81.56
2022-11-24T04:43:56.912Z,81.46
2022-11-24T04:44:58.444Z,81.56
2022-11-24T04:46:01.586Z,81.70
2022-11-24T04:47:03.256Z,81.77
2022-11-24T04:48:07.407Z,81.75
2022-11-24T04:49:11.595Z,81.55
2022-11-24T04:50:14.119Z,81.61
2022-11-24T04:51:15.725Z,81.68
2022-11-24T04:52:19.425Z,81.68
2022-11-24T04:53:20.916Z,81.79
2022-11-24T04:54:23.812Z,81.79
2022-11-24T04:55:25.366Z,81.85
2022-11-24T04:56:27.884Z,81.74
2022-11-24T04:57:29.368Z,81.83
2022-11-24T04:58:31.846Z,81.88
2022-11-24T04:59:33.568Z,81.83
2022-11-24T05:00:36.088Z,82.01
2022-11-24T05:01:37.655Z,81.91
2022-11-24T05:02:40.239Z,82.02
2022-11-24T05:03:43.275Z,82.06
2022-11-24T05:04:45.921Z,81.74
2022-11-24T05:05:47.501Z,81.92
2022-11-24T05:06:50.068Z,81.88
2022-11-24T05:07:51.838Z,81.86
2022-11-24T05:08:54.450Z,81.68
2022-11-24T05:10:14.805Z,81.91
2022-11-24T05:11:18.023Z,81.94
2022-11-24T05:12:19.532Z,81.91
2022-11-24T05:13:23.036Z,81.85
2022-11-24T05:14:24.910Z,81.81
2022-11-24T05:15:27.611Z,81.83
2022-11-24T05:16:29.214Z,81.92
2022-11-24T05:17:33.025Z,82.07
2022-11-24T05:18:34.671Z,81.80
2022-11-24T05:19:38.678Z,81.90
2022-11-24T05:20:41.249Z,81.57
2022-11-24T05:21:42.720Z,81.79
2022-11-24T05:22:45.360Z,81.79
2022-11-24T05:23:47.876Z,81.70
2022-11-24T05:24:49.453Z,81.64
2022-11-24T05:25:52.314Z,81.58
2022-11-24T05:26:53.837Z,81.77
2022-11-24T05:27:56.504Z,81.57
2022-11-24T05:28:58.019Z,81.65
2022-11-24T05:30:00.505Z,81.59
2022-11-24T05:31:04.051Z,81.44
2022-11-24T05:32:05.694Z,81.67
2022-11-24T05:33:09.170Z,81.63
2022-11-24T05:34:10.909Z,81.57
2022-11-24T05:35:14.992Z,81.71
2022-11-24T05:36:31.420Z,81.61
2022-11-24T05:37:33.927Z,81.51
2022-11-24T05:38:35.528Z,81.69
2022-11-24T05:39:38.295Z,81.52
2022-11-24T05:40:40.317Z,81.56
2022-11-24T05:41:42.851Z,81.65
2022-11-24T05:42:47.817Z,81.53
2022-11-24T05:43:50.699Z,81.71
2022-11-24T05:44:53.026Z,81.55
2022-11-24T05:45:55.557Z,81.70
2022-11-24T05:46:57.166Z,81.49
2022-11-24T05:48:07.166Z,81.85
2022-11-24T05:49:08.890Z,81.41
2022-11-24T05:50:13.473Z,81.58
2022-11-24T05:51:16.746Z,81.73
2022-11-24T05:52:19.245Z,81.67
2022-11-24T05:53:20.761Z,81.67
2022-11-24T05:54:23.236Z,81.83
2022-11-24T05:55:24.825Z,81.82
2022-11-24T05:56:27.353Z,81.69
2022-11-24T05:57:28.870Z,81.83
2022-11-24T05:58:31.353Z,81.69
2022-11-24T05:59:33.032Z,81.81
2022-11-24T06:00:37.245Z,81.76
2022-11-24T06:01:38.853Z,81.89
2022-11-24T06:02:41.896Z,82.10
2022-11-24T06:03:43.588Z,81.78
2022-11-24T06:04:46.102Z,81.81
2022-11-24T06:05:47.737Z,81.89
2022-11-24T06:06:51.795Z,81.89
2022-11-24T06:07:54.293Z,81.79
2022-11-24T06:08:56.841Z,81.91
2022-11-24T06:09:58.355Z,82.04
2022-11-24T06:11:16.996Z,81.92
2022-11-24T06:12:20.293Z,81.83
2022-11-24T06:13:22.941Z,81.96
2022-11-24T06:14:24.578Z,81.85
2022-11-24T06:15:27.078Z,81.88
2022-11-24T06:16:29.671Z,81.96
2022-11-24T06:17:31.185Z,81.83
2022-11-24T06:18:33.710Z,81.87
2022-11-24T06:19:38.706Z,81.81
2022-11-24T06:21:02.824Z,81.75
2022-11-24T06:22:07.124Z,81.80
2022-11-24T06:23:09.607Z,82.04
2022-11-24T06:24:11.257Z,81.63
2022-11-24T06:25:13.724Z,81.78
2022-11-24T06:26:15.499Z,81.84
2022-11-24T06:27:18.718Z,81.71
2022-11-24T06:28:20.248Z,81.53
2022-11-24T06:29:22.757Z,81.57
2022-11-24T06:30:24.655Z,81.65
2022-11-24T06:31:27.326Z,81.61
2022-11-24T06:32:29.200Z,81.66
2022-11-24T06:33:33.556Z,81.58
2022-11-24T06:34:35.625Z,81.48
2022-11-24T06:35:38.387Z,81.35
2022-11-24T06:36:40.129Z,81.40
2022-11-24T06:37:43.987Z,81.34
2022-11-24T06:38:45.614Z,81.43
2022-11-24T06:39:48.378Z,81.32
2022-11-24T06:40:49.924Z,81.34
2022-11-24T06:41:52.833Z,81.04
2022-11-24T06:42:54.481Z,81.27
2022-11-24T06:43:57.028Z,81.22
2022-11-24T06:45:00.334Z,81.09
2022-11-24T06:46:02.814Z,81.05
2022-11-24T06:47:05.619Z,81.08
2022-11-24T06:48:07.236Z,80.96
2022-11-24T06:49:09.737Z,80.98
2022-11-24T06:50:11.482Z,80.83
2022-11-24T06:51:14.196Z,80.86
2022-11-24T06:52:15.733Z,80.75
2022-11-24T06:53:20.240Z,80.89
2022-11-24T06:54:22.100Z,80.45
2022-11-24T06:55:24.624Z,80.78
2022-11-24T06:56:26.231Z,80.54
2022-11-24T06:57:29.500Z,80.57
2022-11-24T06:58:31.406Z,80.45
2022-11-24T06:59:33.913Z,80.63
2022-11-24T07:00:38.678Z,80.43
2022-11-24T07:01:41.237Z,80.55
2022-11-24T07:02:46.113Z,80.50
2022-11-24T07:03:49.813Z,80.31
2022-11-24T07:04:52.395Z,80.52
2022-11-24T07:05:57.118Z,80.28
2022-11-24T07:06:59.609Z,80.25
2022-11-24T07:08:01.725Z,80.40
2022-11-24T07:09:05.510Z,80.33
2022-11-24T07:10:09.012Z,80.29
2022-11-24T07:11:12.608Z,80.15
2022-11-24T07:12:15.102Z,80.19
2022-11-24T07:13:16.667Z,79.98
2022-11-24T07:14:19.283Z,80.09
2022-11-24T07:15:20.821Z,79.99
2022-11-24T07:16:25.283Z,79.92
2022-11-24T07:17:26.893Z,79.92
2022-11-24T07:18:29.340Z,79.84
2022-11-24T07:19:30.904Z,79.54
2022-11-24T07:20:33.551Z,79.85
2022-11-24T07:21:35.064Z,79.54
2022-11-24T07:22:37.588Z,79.51
2022-11-24T07:23:39.240Z,79.36
2022-11-24T07:24:43.185Z,79.29
2022-11-24T07:25:44.727Z,79.11
2022-11-24T07:26:47.271Z,79.13
2022-11-24T07:27:48.900Z,79.15
2022-11-24T07:28:52.053Z,79.01
2022-11-24T07:29:53.664Z,78.95
2022-11-24T07:30:56.452Z,78.87
2022-11-24T07:32:05.276Z,78.82
2022-11-24T07:33:08.217Z,78.82
2022-11-24T07:34:10.941Z,78.59
2022-11-24T07:35:12.580Z,78.70
2022-11-24T07:36:15.616Z,78.61
2022-11-24T07:37:18.307Z,78.34
2022-11-24T07:38:20.518Z,78.48
2022-11-24T07:39:23.037Z,78.68
2022-11-24T07:40:26.887Z,78.46
2022-11-24T07:41:29.548Z,78.31
2022-11-24T07:42:31.084Z,78.42
2022-11-24T07:43:35.213Z,78.29
2022-11-24T07:44:37.692Z,78.16
2022-11-24T07:45:39.418Z,78.24
2022-11-24T07:46:42.036Z,78.11
2022-11-24T07:47:43.854Z,78.19
2022-11-24T07:48:46.798Z,78.06
2022-11-24T07:49:49.362Z,78.10
2022-11-24T07:50:55.537Z,77.99
2022-11-24T07:51:58.709Z,77.98
2022-11-24T07:53:01.984Z,77.84
2022-11-24T07:54:04.637Z,77.79
2022-11-24T07:55:07.773Z,77.90
2022-11-24T07:56:12.524Z,77.90
2022-11-24T07:57:14.074Z,77.67
2022-11-24T07:58:16.551Z,77.73
2022-11-24T07:59:19.122Z,77.68
2022-11-24T08:00:21.408Z,77.70
2022-11-24T08:01:23.981Z,77.66
2022-11-24T08:02:26.547Z,77.63
2022-11-24T08:03:28.195Z,77.56
2022-11-24T08:04:30.940Z,77.36
2022-11-24T08:05:32.451Z,77.34
2022-11-24T08:06:39.667Z,77.51
2022-11-24T08:07:44.561Z,77.63
2022-11-24T08:08:46.492Z,77.44
2022-11-24T08:09:50.224Z,77.29
2022-11-24T08:10:52.066Z,77.37
2022-11-24T08:11:55.927Z,77.27
2022-11-24T08:13:00.305Z,77.38
2022-11-24T08:14:02.791Z,77.32
2022-11-24T08:15:09.495Z,77.13
2022-11-24T08:16:16.351Z,77.21
2022-11-24T08:17:18.184Z,77.20
2022-11-24T08:18:22.176Z,77.21
2022-11-24T08:19:24.311Z,77.05
2022-11-24T08:20:26.951Z,77.18
2022-11-24T08:21:29.507Z,77.21
2022-11-24T08:22:31.028Z,77.04
2022-11-24T08:23:34.115Z,77.17
2022-11-24T08:24:36.198Z,77.16
2022-11-24T08:25:38.896Z,77.33
2022-11-24T08:26:41.602Z,77.12
2022-11-24T08:27:45.424Z,76.90
2022-11-24T08:28:48.452Z,77.13
2022-11-24T08:29:49.961Z,77.14
2022-11-24T08:30:52.947Z,77.15
2022-11-24T08:31:57.357Z,76.98
2022-11-24T08:33:00.626Z,77.16
2022-11-24T08:34:04.825Z,76.90
2022-11-24T08:35:14.080Z,77.16
2022-11-24T08:36:17.797Z,77.02
2022-11-24T08:37:20.283Z,76.99
2022-11-24T08:38:22.760Z,77.14
2022-11-24T08:39:25.252Z,77.02
2022-11-24T08:40:27.708Z,77.23
2022-11-24T08:41:29.838Z,77.09
2022-11-24T08:42:32.297Z,77.15
2022-11-24T08:43:35.794Z,77.11
2022-11-24T08:44:38.335Z,77.50
2022-11-24T08:45:41.874Z,77.18
2022-11-24T08:46:44.750Z,77.24
2022-11-24T08:47:46.287Z,77.44
2022-11-24T08:48:49.981Z,77.43
2022-11-24T08:49:52.563Z,77.27
2022-11-24T08:50:54.083Z,77.28
2022-11-24T08:51:57.994Z,77.25
2022-11-24T08:52:59.541Z,77.32
2022-11-24T08:54:02.578Z,77.12
2022-11-24T08:55:04.740Z,77.29
2022-11-24T08:56:08.119Z,77.27
2022-11-24T08:57:11.055Z,77.25
2022-11-24T08:58:12.580Z,77.24
2022-11-24T08:59:16.608Z,77.36
2022-11-24T09:00:22.694Z,77.31
2022-11-24T09:01:25.130Z,77.31
2022-11-24T09:02:27.668Z,76.99
2022-11-24T09:03:29.316Z,77.03
2022-11-24T09:04:32.150Z,77.18
2022-11-24T09:05:52.132Z,76.74
2022-11-24T09:06:55.364Z,77.08
2022-11-24T09:07:58.983Z,77.02
2022-11-24T09:09:01.631Z,77.07
2022-11-24T09:10:03.411Z,77.13
2022-11-24T09:11:08.735Z,76.79
2022-11-24T09:12:14.379Z,77.07
2022-11-24T09:13:17.202Z,76.92
2022-11-24T09:14:21.008Z,77.13
2022-11-24T09:15:22.839Z,76.96
2022-11-24T09:16:27.784Z,77.30
2022-11-24T09:17:30.370Z,77.09
2022-11-24T09:18:33.121Z,77.13
2022-11-24T09:19:35.986Z,77.29
2022-11-24T09:20:38.793Z,77.27
2022-11-24T09:21:41.281Z,77.11
2022-11-24T09:22:43.794Z,77.26
2022-11-24T09:23:47.085Z,77.13
2022-11-24T09:24:49.591Z,76.90
2022-11-24T09:25:51.111Z,77.14
2022-11-24T09:26:55.317Z,76.90
2022-11-24T09:27:57.263Z,76.96
2022-11-24T09:29:01.506Z,77.04
2022-11-24T09:30:06.447Z,76.97
2022-11-24T09:31:10.461Z,76.92
2022-11-24T09:32:12.986Z,76.92
2022-11-24T09:33:15.479Z,77.04
2022-11-24T09:34:18.671Z,77.09
2022-11-24T09:35:20.264Z,76.90
2022-11-24T09:36:23.396Z,77.07
2022-11-24T09:37:29.615Z,76.95
2022-11-24T09:38:35.211Z,76.97
2022-11-24T09:39:37.725Z,76.73
2022-11-24T09:40:39.362Z,76.78
2022-11-24T09:42:08.553Z,76.69
2022-11-24T09:43:20.511Z,76.71
2022-11-24T09:45:03.578Z,76.78
2022-11-24T09:46:12.570Z,76.79
2022-11-24T09:47:24.363Z,76.80
2022-11-24T09:48:31.841Z,76.94
2022-11-24T09:49:40.585Z,76.54
2022-11-24T09:50:45.325Z,76.75
2022-11-24T09:51:53.337Z,76.76
2022-11-24T09:53:03.530Z,76.62
2022-11-24T09:54:13.768Z,76.67
2022-11-24T09:55:25.617Z,76.99
2022-11-24T09:56:29.935Z,76.73
2022-11-24T09:57:37.725Z,76.96
2022-11-24T09:58:45.322Z,76.73
2022-11-24T09:59:46.939Z,76.67
2022-11-24T10:00:53.403Z,76.75
2022-11-24T10:01:57.759Z,76.73
2022-11-24T10:02:59.607Z,76.76
2022-11-24T10:04:06.299Z,76.53
2022-11-24T10:05:08.853Z,76.59
2022-11-24T10:06:21.417Z,76.73
2022-11-24T10:07:29.113Z,76.50
2022-11-24T10:08:48.512Z,76.66
2022-11-24T10:10:01.131Z,76.67
2022-11-24T10:11:11.045Z,76.64
2022-11-24T10:12:28.544Z,76.76
2022-11-24T10:13:47.312Z,76.69
2022-11-24T10:15:11.849Z,76.66
2022-11-24T10:16:36.595Z,76.72
2022-11-24T10:17:52.963Z,76.48
2022-11-24T10:19:12.908Z,76.75
2022-11-24T10:20:23.319Z,76.90
2022-11-24T10:21:46.144Z,76.83
2022-11-24T10:22:55.308Z,76.75
2022-11-24T10:24:13.496Z,76.86
2022-11-24T10:25:25.466Z,76.85
2022-11-24T10:26:34.911Z,76.73
2022-11-24T10:27:43.004Z,76.78
2022-11-24T10:28:53.218Z,76.88
2022-11-24T10:29:57.031Z,76.86
2022-11-24T10:31:17.464Z,76.86
2022-11-24T10:32:23.738Z,76.82
2022-11-24T10:33:30.881Z,76.86
2022-11-24T10:34:37.302Z,76.52
2022-11-24T10:35:45.806Z,76.83
2022-11-24T10:36:53.763Z,76.52
2022-11-24T10:38:03.974Z,76.60
2022-11-24T10:39:16.514Z,76.45
2022-11-24T10:40:56.524Z,76.52
2022-11-24T10:41:53.422Z,76.46
2022-11-24T10:42:55.004Z,76.51
2022-11-24T10:43:59.000Z,76.43
2022-11-24T10:45:02.721Z,76.51
2022-11-24T10:46:12.861Z,76.40
2022-11-24T10:47:20.418Z,76.20
2022-11-24T10:48:28.249Z,76.19
2022-11-24T10:49:33.593Z,76.36
2022-11-24T10:50:38.295Z,76.36
2022-11-24T10:51:52.584Z,76.40
2022-11-24T10:53:03.278Z,76.20
2022-11-24T10:54:12.099Z,76.13
2022-11-24T10:55:14.680Z,76.47
2022-11-24T10:56:17.836Z,76.34
2022-11-24T10:57:28.432Z,76.26
2022-11-24T10:58:37.354Z,76.36
2022-11-24T10:59:40.695Z,76.28
2022-11-24T11:00:43.208Z,76.36
2022-11-24T11:01:44.799Z,76.13
2022-11-24T11:02:49.610Z,76.30
2022-11-24T11:03:55.347Z,76.23
2022-11-24T11:04:58.080Z,76.31
2022-11-24T11:06:05.075Z,76.21
2022-11-24T11:07:17.444Z,76.04
2022-11-24T11:08:24.172Z,76.22
2022-11-24T11:09:26.854Z,76.26
2022-11-24T11:10:29.336Z,76.08
2022-11-24T11:11:32.440Z,76.07
2022-11-24T11:12:43.792Z,76.02
2022-11-24T11:14:01.586Z,76.00
2022-11-24T11:15:25.458Z,75.86
2022-11-24T11:16:34.390Z,76.00
2022-11-24T11:17:39.417Z,75.88
2022-11-24T11:18:49.803Z,75.82
2022-11-24T11:20:00.361Z,76.00
2022-11-24T11:21:06.058Z,75.93
2022-11-24T11:22:20.864Z,76.07
2022-11-24T11:23:28.363Z,75.88
2022-11-24T11:24:31.624Z,76.03
2022-11-24T11:25:36.232Z,75.76
2022-11-24T11:26:41.476Z,75.66
2022-11-24T11:27:44.226Z,75.91
2022-11-24T11:31:15.498Z,75.91
2022-11-24T11:34:51.299Z,75.88
2022-11-24T11:35:55.185Z,75.53
2022-11-24T11:36:59.662Z,75.58
2022-11-24T11:38:03.807Z,75.68
2022-11-24T11:39:06.745Z,75.56
2022-11-24T11:40:15.724Z,75.59
2022-11-24T11:41:22.636Z,75.24
2022-11-24T11:43:00.633Z,75.31
2022-11-24T11:44:03.563Z,75.27
2022-11-24T11:45:12.730Z,75.07
2022-11-24T11:46:16.990Z,75.40
2022-11-24T11:47:26.403Z,75.14
2022-11-24T11:48:40.650Z,75.24
2022-11-24T11:49:46.281Z,74.96
2022-11-24T11:51:22.897Z,75.02
2022-11-24T11:52:45.908Z,75.13
2022-11-24T11:53:59.701Z,74.88
2022-11-24T11:55:38.961Z,75.09
2022-11-24T11:56:45.671Z,74.86
2022-11-24T11:57:57.551Z,74.92
2022-11-24T11:59:32.291Z,75.00
2022-11-24T12:00:39.777Z,74.94
2022-11-24T12:01:58.227Z,74.87
2022-11-24T12:03:27.342Z,75.11
2022-11-24T12:04:43.676Z,75.08
2022-11-24T12:05:53.354Z,74.71
2022-11-24T12:07:19.313Z,74.82
2022-11-24T12:08:55.937Z,75.08
2022-11-24T12:10:05.644Z,74.60
2022-11-24T12:11:15.497Z,74.89
2022-11-24T12:12:35.647Z,74.92
2022-11-24T12:13:53.820Z,74.66
2022-11-24T12:15:10.787Z,74.70
2022-11-24T12:16:27.590Z,74.63
2022-11-24T12:17:35.810Z,74.49
2022-11-24T12:18:59.985Z,74.63
2022-11-24T12:20:15.423Z,74.57
2022-11-24T12:21:24.531Z,74.60
2022-11-24T12:22:37.869Z,74.60
2022-11-24T12:23:56.232Z,74.69
2022-11-24T12:25:15.005Z,74.54
2022-11-24T12:26:26.149Z,74.49
2022-11-24T12:27:39.115Z,74.48
2022-11-24T12:28:48.720Z,74.29
2022-11-24T12:30:08.873Z,74.42
2022-11-24T12:31:22.767Z,74.24
2022-11-24T12:32:43.252Z,74.30
2022-11-24T12:34:05.758Z,74.38
2022-11-24T12:35:16.178Z,74.50
2022-11-24T12:36:36.682Z,74.31
2022-11-24T12:37:54.149Z,74.25
2022-11-24T12:39:06.821Z,74.32
2022-11-24T12:40:16.183Z,74.03
2022-11-24T12:41:45.518Z,74.18
2022-11-24T12:43:00.331Z,74.19
2022-11-24T12:44:03.094Z,74.20
2022-11-24T12:45:13.946Z,74.39
2022-11-24T12:46:21.511Z,74.18
2022-11-24T12:47:32.571Z,74.04
2022-11-24T12:48:51.302Z,73.96
2022-11-24T12:50:08.877Z,73.95
2022-11-24T12:51:18.082Z,74.27
2022-11-24T12:52:24.561Z,74.02
2022-11-24T12:53:31.689Z,73.99
2022-11-24T12:54:39.248Z,74.22
2022-11-24T12:55:43.539Z,74.32
2022-11-24T12:56:54.389Z,74.05
2022-11-24T12:58:10.606Z,74.19
2022-11-24T12:59:33.032Z,74.08
2022-11-24T13:00:40.507Z,74.04
2022-11-24T13:01:56.009Z,74.29
2022-11-24T13:03:14.303Z,73.94
2022-11-24T13:04:30.615Z,74.11
2022-11-24T13:05:42.598Z,74.08
2022-11-24T13:06:52.797Z,74.07
2022-11-24T13:07:58.493Z,74.03
2022-11-24T13:09:07.729Z,74.07
2022-11-24T13:12:06.142Z,74.06
2022-11-24T13:13:09.142Z,74.29
2022-11-24T13:14:21.578Z,74.01
2022-11-24T13:15:44.771Z,74.17
2022-11-24T13:18:45.144Z,74.08
2022-11-24T13:19:49.142Z,73.88
2022-11-24T13:20:50.769Z,73.85
2022-11-24T13:22:16.445Z,73.91
2022-11-24T13:23:26.745Z,74.07
2022-11-24T13:24:30.747Z,73.79
2022-11-24T13:25:36.637Z,73.95
2022-11-24T13:26:47.194Z,73.91
2022-11-24T13:27:52.847Z,73.87
2022-11-24T13:29:06.120Z,73.70
2022-11-24T13:30:54.304Z,73.96
2022-11-24T13:32:46.599Z,73.76
2022-11-24T13:33:49.182Z,73.80
2022-11-24T13:34:55.065Z,73.93
2022-11-24T13:36:34.926Z,73.90
2022-11-24T13:37:48.689Z,73.85
2022-11-24T13:38:53.998Z,74.06
2022-11-24T13:39:58.117Z,74.09
2022-11-24T13:41:21.374Z,73.88
2022-11-24T13:42:41.626Z,74.29
2022-11-24T13:44:24.585Z,74.00
2022-11-24T13:45:51.872Z,73.93
2022-11-24T13:47:01.583Z,74.18
2022-11-24T13:48:53.026Z,74.07
2022-11-24T13:49:54.604Z,74.44
2022-11-24T13:51:16.271Z,74.26
2022-11-24T13:52:40.656Z,74.16
2022-11-24T13:53:46.115Z,74.03
2022-11-24T13:54:48.898Z,74.23
2022-11-24T13:55:58.995Z,73.93
2022-11-24T13:57:36.571Z,74.17
2022-11-24T13:58:40.565Z,73.99
2022-11-24T13:59:43.159Z,74.06
2022-11-24T14:01:01.601Z,74.10
2022-11-24T14:02:22.749Z,74.20
2022-11-24T14:03:29.436Z,74.06
2022-11-24T14:04:43.428Z,73.99
2022-11-24T14:05:48.226Z,73.97
2022-11-24T14:07:02.471Z,74.06
2022-11-24T14:08:21.956Z,73.86
2022-11-24T14:09:28.581Z,74.03
2022-11-24T14:10:33.602Z,74.00
2022-11-24T14:11:36.420Z,73.98
2022-11-24T14:12:40.337Z,73.86
2022-11-24T14:13:41.997Z,74.09
2022-11-24T14:14:46.286Z,73.98
2022-11-24T14:15:59.408Z,74.02
2022-11-24T14:17:14.374Z,73.97